createdAt,value
2022-11-12T00:01:47.528Z,42.53
2022-11-12T00:04:15.359Z,42.40
2022-11-12T00:06:43.154Z,42.26
2022-11-12T00:09:11.025Z,42.33
2022-11-12T00:11:38.800Z,42.71
2022-11-12T00:14:06.684Z,42.17
2022-11-12T00:16:34.469Z,42.32
2022-11-12T00:19:02.218Z,42.78
2022-11-12T00:21:30.158Z,42.13
2022-11-12T00:23:57.927Z,42.77
2022-11-12T00:26:25.850Z,42.71
2022-11-12T00:28:53.632Z,42.96
2022-11-12T00:31:21.360Z,42.77
2022-11-12T00:33:49.507Z,43.21
2022-11-12T00:36:17.262Z,42.81
2022-11-12T00:38:45.038Z,42.87
2022-11-12T00:41:12.832Z,42.54
2022-11-12T00:43:43.625Z,43.01
2022-11-12T00:46:11.407Z,42.72
2022-11-12T00:48:40.981Z,42.65
2022-11-12T00:51:08.782Z,42.62
2022-11-12T00:53:36.687Z,42.77
2022-11-12T00:56:04.518Z,42.39
2022-11-12T00:58:32.300Z,42.87
2022-11-12T01:01:00.206Z,42.59
2022-11-12T01:03:28.031Z,43.20
2022-11-12T01:05:55.826Z,43.22
2022-11-12T01:08:24.373Z,43.17
2022-11-12T01:10:52.546Z,42.97
2022-11-12T01:13:20.260Z,43.13
2022-11-12T01:15:48.054Z,43.04
2022-11-12T01:18:15.829Z,42.96
2022-11-12T01:20:43.687Z,42.88
2022-11-12T01:23:11.458Z,43.01
2022-11-12T01:25:39.631Z,42.97
2022-11-12T01:28:07.387Z,42.84
2022-11-12T01:30:35.188Z,42.33
2022-11-12T01:33:03.262Z,42.63
2022-11-12T01:35:31.227Z,42.63
2022-11-12T01:37:59.013Z,42.81
2022-11-12T01:40:26.764Z,42.95
2022-11-12T01:42:54.543Z,42.88
2022-11-12T01:45:22.929Z,42.67
2022-11-12T01:47:50.753Z,42.70
2022-11-12T01:50:18.627Z,42.78
2022-11-12T01:52:46.555Z,42.91
2022-11-12T01:55:14.296Z,42.62
2022-11-12T01:57:42.014Z,42.34
2022-11-12T02:00:10.328Z,42.81
2022-11-12T02:02:38.114Z,42.56
2022-11-12T02:05:05.861Z,42.62
2022-11-12T02:07:33.810Z,42.49
2022-11-12T02:10:01.598Z,42.83
2022-11-12T02:12:46.826Z,42.62
2022-11-12T02:15:14.613Z,43.06
2022-11-12T02:17:42.406Z,42.62
2022-11-12T02:20:10.162Z,42.58
2022-11-12T02:22:37.896Z,42.68
2022-11-12T02:25:05.645Z,42.55
2022-11-12T02:27:33.357Z,42.95
2022-11-12T02:30:01.347Z,42.49
2022-11-12T02:32:29.147Z,42.54
2022-11-12T02:34:56.921Z,43.11
2022-11-12T02:37:24.856Z,43.01
2022-11-12T02:39:52.615Z,42.90
2022-11-12T02:42:20.385Z,42.76
2022-11-12T02:44:48.208Z,42.42
2022-11-12T02:47:15.970Z,42.73
2022-11-12T02:49:45.710Z,42.76
2022-11-12T02:52:13.421Z,43.04
2022-11-12T02:54:41.625Z,42.75
2022-11-12T02:57:09.385Z,42.66
2022-11-12T02:59:37.181Z,42.87
2022-11-12T03:02:06.172Z,42.47
2022-11-12T03:04:34.085Z,42.80
2022-11-12T03:07:01.941Z,42.56
2022-11-12T03:09:29.753Z,42.58
2022-11-12T03:11:57.512Z,42.73
2022-11-12T03:14:25.265Z,42.75
2022-11-12T03:16:53.083Z,42.68
2022-11-12T03:19:20.873Z,42.53
2022-11-12T03:21:48.722Z,42.59
2022-11-12T03:24:16.448Z,42.49
2022-11-12T03:26:44.197Z,42.65
2022-11-12T03:29:12.143Z,42.58
2022-11-12T03:31:39.912Z,42.61
2022-11-12T03:34:07.676Z,42.76
2022-11-12T03:36:38.516Z,42.64
2022-11-12T03:39:09.871Z,42.26
2022-11-12T03:41:37.607Z,42.40
2022-11-12T03:44:05.384Z,42.82
2022-11-12T03:46:33.272Z,42.34
2022-11-12T03:49:02.693Z,42.81
2022-11-12T03:51:32.607Z,42.38
2022-11-12T03:54:00.345Z,42.55
2022-11-12T03:56:29.722Z,42.55
2022-11-12T03:58:59.924Z,42.88
2022-11-12T04:01:27.791Z,42.43
2022-11-12T04:03:55.554Z,42.46
2022-11-12T04:06:40.889Z,42.45
2022-11-12T04:09:08.664Z,42.52
2022-11-12T04:11:36.436Z,42.50
2022-11-12T04:14:03.366Z,42.92
2022-11-12T04:16:48.930Z,42.51
2022-11-12T04:19:34.036Z,42.45
2022-11-12T04:22:01.859Z,42.52
2022-11-12T04:24:46.831Z,42.61
2022-11-12T04:27:16.711Z,42.76
2022-11-12T04:30:01.717Z,42.46
2022-11-12T04:32:29.551Z,42.82
2022-11-12T04:34:59.844Z,42.57
2022-11-12T04:37:27.683Z,42.49
2022-11-12T04:39:55.456Z,42.75
2022-11-12T04:42:40.970Z,42.35
2022-11-12T04:45:11.722Z,42.41
2022-11-12T04:47:39.553Z,42.21
2022-11-12T04:50:07.328Z,42.11
2022-11-12T04:52:35.142Z,42.17
2022-11-12T04:55:02.890Z,42.22
2022-11-12T04:57:30.662Z,42.33
2022-11-12T04:59:58.410Z,42.24
2022-11-12T05:02:26.248Z,42.14
2022-11-12T05:04:54.011Z,42.57
2022-11-12T05:07:21.903Z,42.67
2022-11-12T05:09:49.713Z,42.75
2022-11-12T05:12:17.505Z,42.89
2022-11-12T05:14:45.276Z,42.78
2022-11-12T05:17:13.034Z,42.92
2022-11-12T05:19:40.790Z,42.68
2022-11-12T05:22:17.376Z,42.89
2022-11-12T05:24:49.919Z,42.75
2022-11-12T05:27:17.661Z,42.90
2022-11-12T05:29:45.574Z,42.83
2022-11-12T05:32:13.335Z,43.10
2022-11-12T05:34:41.181Z,43.08
2022-11-12T05:37:08.935Z,43.23
2022-11-12T05:39:36.712Z,42.95
2022-11-12T05:42:13.557Z,43.40
2022-11-12T05:44:41.817Z,43.08
2022-11-12T05:47:09.636Z,39.15
2022-11-12T05:49:37.434Z,28.26
2022-11-12T05:52:05.305Z,21.98
2022-11-12T05:54:35.323Z,18.52
2022-11-12T05:57:03.162Z,16.90
2022-11-12T05:59:30.968Z,15.44
2022-11-12T06:01:58.789Z,14.52
2022-11-12T06:04:26.561Z,13.98
2022-11-12T06:06:54.381Z,13.75
2022-11-12T06:09:22.234Z,14.07
2022-11-12T06:11:50.139Z,14.58
2022-11-12T06:14:17.920Z,14.95
2022-11-12T06:16:45.717Z,15.94
2022-11-12T06:19:13.651Z,16.79
2022-11-12T06:21:41.430Z,17.56
2022-11-12T06:24:09.435Z,18.45
2022-11-12T06:26:38.081Z,19.54
2022-11-12T06:29:05.859Z,20.40
2022-11-12T06:31:33.595Z,21.43
2022-11-12T06:34:01.401Z,22.10
2022-11-12T06:36:32.265Z,23.06
2022-11-12T06:39:00.145Z,24.10
2022-11-12T06:41:27.963Z,24.91
2022-11-12T06:43:55.742Z,25.98
2022-11-12T06:46:23.702Z,26.76
2022-11-12T06:48:51.556Z,27.22
2022-11-12T06:51:19.427Z,27.78
2022-11-12T06:53:47.319Z,28.97
2022-11-12T06:56:15.232Z,29.70
2022-11-12T06:58:43.069Z,30.05
2022-11-12T07:01:12.210Z,30.60
2022-11-12T07:03:40.474Z,31.67
2022-11-12T07:06:08.245Z,31.95
2022-11-12T07:08:36.038Z,32.39
2022-11-12T07:11:03.882Z,32.92
2022-11-12T07:13:32.132Z,32.33
2022-11-12T07:15:59.931Z,32.47
2022-11-12T07:18:28.196Z,32.57
2022-11-12T07:20:56.497Z,33.08
2022-11-12T07:23:24.646Z,33.11
2022-11-12T07:25:52.410Z,33.30
2022-11-12T07:28:20.500Z,34.11
2022-11-12T07:30:48.431Z,34.01
2022-11-12T07:33:16.288Z,34.55
2022-11-12T07:35:44.298Z,35.26
2022-11-12T07:38:12.320Z,35.27
2022-11-12T07:40:40.054Z,35.62
2022-11-12T07:43:07.801Z,35.86
2022-11-12T07:45:35.590Z,35.95
2022-11-12T07:48:03.338Z,36.59
2022-11-12T07:50:31.109Z,36.75
2022-11-12T07:52:58.892Z,37.08
2022-11-12T07:55:26.708Z,37.25
2022-11-12T07:57:54.705Z,37.15
2022-11-12T08:00:23.678Z,37.25
2022-11-12T08:02:51.457Z,37.69
2022-11-12T08:05:21.479Z,37.93
2022-11-12T08:07:49.569Z,38.14
2022-11-12T08:10:17.410Z,37.88
2022-11-12T08:12:45.287Z,37.93
2022-11-12T08:15:13.045Z,38.16
2022-11-12T08:17:41.013Z,38.31
2022-11-12T08:20:08.786Z,38.71
2022-11-12T08:22:36.683Z,38.51
2022-11-12T08:25:04.429Z,38.69
2022-11-12T08:27:32.338Z,39.02
2022-11-12T08:30:00.142Z,39.14
2022-11-12T08:32:28.137Z,39.11
2022-11-12T08:34:55.944Z,38.90
2022-11-12T08:37:23.938Z,39.12
2022-11-12T08:39:51.735Z,39.44
2022-11-12T08:42:19.490Z,39.36
2022-11-12T08:44:47.345Z,38.88
2022-11-12T08:47:15.196Z,39.02
2022-11-12T08:49:47.755Z,39.47
2022-11-12T08:52:16.011Z,39.32
2022-11-12T08:54:43.835Z,39.50
2022-11-12T08:57:11.658Z,39.73
2022-11-12T08:59:39.450Z,39.71
2022-11-12T09:02:07.964Z,40.14
2022-11-12T09:04:35.752Z,39.65
2022-11-12T09:07:05.142Z,39.95
2022-11-12T09:09:33.242Z,40.05
2022-11-12T09:12:05.732Z,40.25
2022-11-12T09:14:36.368Z,40.24
2022-11-12T09:17:04.231Z,40.62
2022-11-12T09:19:32.173Z,40.74
2022-11-12T09:21:59.996Z,40.53
2022-11-12T09:24:27.796Z,40.44
2022-11-12T09:26:55.546Z,40.68
2022-11-12T09:29:23.487Z,40.73
2022-11-12T09:31:51.319Z,40.96
2022-11-12T09:34:21.840Z,40.50
2022-11-12T09:36:49.644Z,41.09
2022-11-12T09:39:17.528Z,40.91
2022-11-12T09:41:45.313Z,40.70
2022-11-12T09:44:13.394Z,41.16
2022-11-12T09:46:41.176Z,41.27
2022-11-12T09:49:09.432Z,40.91
2022-11-12T09:51:37.486Z,40.63
2022-11-12T09:54:05.280Z,41.01
2022-11-12T09:56:33.383Z,41.06
2022-11-12T09:59:01.138Z,41.00
2022-11-12T10:01:28.904Z,41.00
2022-11-12T10:03:56.756Z,40.95
2022-11-12T10:06:24.483Z,41.09
2022-11-12T10:08:59.872Z,40.89
2022-11-12T10:11:27.706Z,41.16
2022-11-12T10:13:55.513Z,40.89
2022-11-12T10:16:41.327Z,41.32
2022-11-12T10:19:09.096Z,41.47
2022-11-12T10:21:36.856Z,41.23
2022-11-12T10:24:04.802Z,41.04
2022-11-12T10:26:32.626Z,41.09
2022-11-12T10:29:00.390Z,40.91
2022-11-12T10:31:28.210Z,40.76
2022-11-12T10:33:56.006Z,41.15
2022-11-12T10:36:23.973Z,40.79
2022-11-12T10:38:51.728Z,40.78
2022-11-12T10:41:19.535Z,41.24
2022-11-12T10:43:47.337Z,41.36
2022-11-12T10:46:15.092Z,41.32
2022-11-12T10:48:42.881Z,40.89
2022-11-12T10:51:10.846Z,41.08
2022-11-12T10:53:38.664Z,41.51
2022-11-12T10:56:06.633Z,41.01
2022-11-12T10:58:34.589Z,41.43
2022-11-12T11:01:02.464Z,41.15
2022-11-12T11:03:30.270Z,41.23
2022-11-12T11:05:58.081Z,41.41
2022-11-12T11:08:28.262Z,41.22
2022-11-12T11:10:59.406Z,41.45
2022-11-12T11:13:27.210Z,41.58
2022-11-12T11:15:55.054Z,41.38
2022-11-12T11:18:22.981Z,41.58
2022-11-12T11:20:50.738Z,41.68
2022-11-12T11:23:18.685Z,41.53
2022-11-12T11:25:46.440Z,41.39
2022-11-12T11:28:14.234Z,41.63
2022-11-12T11:30:42.032Z,41.46
2022-11-12T11:33:09.851Z,41.32
2022-11-12T11:35:37.601Z,41.29
2022-11-12T11:38:05.335Z,41.51
2022-11-12T11:40:33.128Z,41.30
2022-11-12T11:43:00.894Z,41.33
2022-11-12T11:45:28.695Z,41.58
2022-11-12T11:48:03.208Z,41.65
2022-11-12T11:50:30.997Z,41.61
2022-11-12T11:52:58.798Z,41.42
2022-11-12T11:55:26.647Z,41.70
2022-11-12T11:57:54.434Z,41.23
2022-11-12T12:00:23.019Z,41.28
2022-11-12T12:02:50.823Z,41.46
2022-11-12T12:05:18.790Z,41.76
2022-11-12T12:07:46.604Z,41.47
2022-11-12T12:10:14.465Z,41.57
2022-11-12T12:12:42.305Z,41.88
2022-11-12T12:15:10.293Z,41.42
2022-11-12T12:17:38.088Z,41.28
2022-11-12T12:20:05.885Z,41.32
2022-11-12T12:22:33.694Z,41.26
2022-11-12T12:25:01.503Z,41.39
2022-11-12T12:27:29.278Z,41.38
2022-11-12T12:29:57.182Z,41.28
2022-11-12T12:32:24.987Z,41.27
2022-11-12T12:34:52.797Z,41.49
2022-11-12T12:37:20.587Z,41.29
2022-11-12T12:39:48.431Z,41.71
2022-11-12T12:42:17.221Z,41.26
2022-11-12T12:44:52.627Z,41.58
2022-11-12T12:47:20.589Z,39.63
2022-11-12T12:49:48.491Z,34.14
2022-11-12T12:52:16.400Z,29.57
2022-11-12T12:54:45.239Z,26.86
2022-11-12T12:57:13.169Z,25.55
2022-11-12T12:59:41.121Z,25.55
2022-11-12T13:02:09.024Z,25.29
2022-11-12T13:04:47.393Z,25.96
2022-11-12T13:07:19.995Z,25.97
2022-11-12T13:09:51.016Z,27.08
2022-11-12T13:12:24.805Z,27.51
2022-11-12T13:15:03.141Z,28.24
2022-11-12T13:17:33.865Z,29.45
2022-11-12T13:20:02.623Z,30.01
2022-11-12T13:22:30.540Z,30.88
2022-11-12T13:24:58.519Z,31.73
2022-11-12T13:27:26.528Z,32.16
2022-11-12T13:29:54.575Z,32.85
2022-11-12T13:32:22.808Z,33.32
2022-11-12T13:34:50.705Z,33.74
2022-11-12T13:37:18.632Z,34.34
2022-11-12T13:40:05.474Z,34.75
2022-11-12T13:42:51.446Z,35.52
2022-11-12T13:45:19.297Z,35.76
2022-11-12T13:47:47.329Z,36.54
2022-11-12T13:50:15.280Z,36.47
2022-11-12T13:52:43.181Z,37.20
2022-11-12T13:55:11.023Z,37.49
2022-11-12T13:57:39.148Z,37.63
2022-11-12T14:00:07.006Z,37.62
2022-11-12T14:02:39.158Z,38.19
2022-11-12T14:05:09.390Z,38.66
2022-11-12T14:07:37.312Z,38.37
2022-11-12T14:10:05.302Z,38.44
2022-11-12T14:12:33.526Z,38.42
2022-11-12T14:15:01.429Z,38.30
2022-11-12T14:17:29.416Z,38.25
2022-11-12T14:19:57.348Z,38.31
2022-11-12T14:22:25.609Z,38.55
2022-11-12T14:24:53.575Z,38.66
2022-11-12T14:27:21.458Z,38.70
2022-11-12T14:29:49.306Z,38.74
2022-11-12T14:32:17.148Z,39.10
2022-11-12T14:34:44.969Z,39.29
2022-11-12T14:37:12.835Z,39.28
2022-11-12T14:39:41.468Z,39.75
2022-11-12T14:42:09.582Z,39.83
2022-11-12T14:44:37.809Z,39.83
2022-11-12T14:47:05.768Z,40.05
2022-11-12T14:49:36.541Z,40.27
2022-11-12T14:52:07.420Z,40.13
2022-11-12T14:54:38.386Z,40.26
2022-11-12T14:57:06.338Z,40.31
2022-11-12T14:59:34.257Z,40.35
2022-11-12T15:02:29.465Z,40.87
2022-11-12T15:04:50.165Z,40.33
2022-11-12T15:07:18.137Z,40.62
2022-11-12T15:09:46.001Z,40.75
2022-11-12T15:12:14.353Z,41.03
2022-11-12T15:14:42.403Z,40.64
2022-11-12T15:17:10.560Z,40.75
2022-11-12T15:19:38.364Z,40.99
2022-11-12T15:22:06.280Z,40.94
2022-11-12T15:24:34.166Z,41.39
2022-11-12T15:27:02.584Z,41.26
2022-11-12T15:29:30.440Z,40.68
2022-11-12T15:31:58.585Z,40.81
2022-11-12T15:34:26.478Z,40.97
2022-11-12T15:36:54.321Z,40.93
2022-11-12T15:39:22.204Z,41.20
2022-11-12T15:41:50.042Z,40.79
2022-11-12T15:44:17.921Z,40.99
2022-11-12T15:46:45.921Z,41.08
2022-11-12T15:49:13.888Z,41.25
2022-11-12T15:51:41.815Z,40.94
2022-11-12T15:54:09.782Z,41.24
2022-11-12T15:56:37.734Z,41.07
2022-11-12T15:59:05.630Z,41.46
2022-11-12T16:01:33.609Z,41.30
2022-11-12T16:04:01.455Z,41.08
2022-11-12T16:06:29.361Z,41.23
2022-11-12T16:08:57.322Z,41.46
2022-11-12T16:11:37.222Z,40.96
2022-11-12T16:14:05.064Z,41.66
2022-11-12T16:16:33.024Z,41.09
2022-11-12T16:19:00.967Z,41.38
2022-11-12T16:21:28.865Z,41.51
2022-11-12T16:23:56.970Z,41.08
2022-11-12T16:26:24.849Z,41.30
2022-11-12T16:28:52.712Z,41.45
2022-11-12T16:31:20.695Z,41.37
2022-11-12T16:33:49.589Z,40.96
2022-11-12T16:36:17.749Z,41.59
2022-11-12T16:38:45.654Z,41.51
2022-11-12T16:41:13.685Z,41.38
2022-11-12T16:43:41.577Z,41.67
2022-11-12T16:46:09.510Z,41.83
2022-11-12T16:48:38.276Z,41.89
2022-11-12T16:51:06.200Z,41.58
2022-11-12T16:53:34.097Z,41.88
2022-11-12T16:56:02.019Z,42.01
2022-11-12T16:58:29.879Z,42.18
2022-11-12T17:00:57.914Z,42.26
2022-11-12T17:03:26.387Z,42.50
2022-11-12T17:05:54.572Z,42.02
2022-11-12T17:08:22.446Z,42.14
2022-11-12T17:10:50.948Z,42.26
2022-11-12T17:13:18.847Z,42.22
2022-11-12T17:15:46.866Z,42.07
2022-11-12T17:18:14.904Z,42.57
2022-11-12T17:20:45.008Z,42.32
2022-11-12T17:23:16.237Z,41.94
2022-11-12T17:25:44.146Z,42.24
2022-11-12T17:28:12.047Z,41.93
2022-11-12T17:30:40.023Z,42.41
2022-11-12T17:33:07.883Z,42.16
2022-11-12T17:35:35.719Z,42.22
2022-11-12T17:38:03.644Z,42.13
2022-11-12T17:40:32.609Z,42.60
2022-11-12T17:43:00.475Z,42.52
2022-11-12T17:45:28.461Z,42.18
2022-11-12T17:47:56.484Z,42.33
2022-11-12T17:50:24.433Z,42.25
2022-11-12T17:52:52.333Z,42.48
2022-11-12T17:55:20.251Z,42.16
2022-11-12T17:57:48.379Z,42.02
2022-11-12T18:00:16.390Z,41.98
2022-11-12T18:02:44.362Z,42.03
2022-11-12T18:05:12.400Z,42.12
2022-11-12T18:07:40.288Z,42.23
2022-11-12T18:10:08.171Z,41.79
2022-11-12T18:12:36.110Z,42.02
2022-11-12T18:15:04.123Z,41.74
2022-11-12T18:17:32.003Z,41.93
2022-11-12T18:19:59.908Z,41.66
2022-11-12T18:22:27.803Z,42.14
2022-11-12T18:24:55.703Z,41.72
2022-11-12T18:27:23.690Z,41.57
2022-11-12T18:29:51.675Z,41.72
2022-11-12T18:32:19.713Z,41.66
2022-11-12T18:34:47.640Z,41.58
2022-11-12T18:37:15.619Z,41.58
2022-11-12T18:39:43.576Z,41.80
2022-11-12T18:42:11.438Z,41.72
2022-11-12T18:44:39.331Z,41.72
2022-11-12T18:47:07.391Z,41.60
2022-11-12T18:49:35.152Z,42.15
2022-11-12T18:52:03.014Z,41.91
2022-11-12T18:54:30.836Z,41.93
2022-11-12T18:56:58.818Z,41.43
2022-11-12T18:59:30.700Z,41.60
2022-11-12T19:01:58.901Z,41.65
2022-11-12T19:04:26.648Z,41.53
2022-11-12T19:06:54.477Z,41.87
2022-11-12T19:09:22.433Z,41.96
2022-11-12T19:11:50.224Z,41.95
2022-11-12T19:14:17.994Z,41.83
2022-11-12T19:16:45.788Z,41.90
2022-11-12T19:19:15.134Z,41.67
2022-11-12T19:21:42.989Z,41.68
2022-11-12T19:24:10.833Z,41.71
2022-11-12T19:26:38.802Z,41.95
2022-11-12T19:29:06.609Z,41.89
2022-11-12T19:31:35.282Z,41.48
2022-11-12T19:34:03.135Z,41.69
2022-11-12T19:36:30.958Z,41.92
2022-11-12T19:38:58.773Z,41.76
2022-11-12T19:41:26.538Z,41.89
2022-11-12T19:43:54.358Z,42.15
2022-11-12T19:46:22.144Z,41.64
2022-11-12T19:48:49.936Z,41.45
2022-11-12T19:51:17.721Z,41.88
2022-11-12T19:53:45.628Z,41.75
2022-11-12T19:56:13.677Z,41.53
2022-11-12T19:58:41.675Z,41.73
2022-11-12T20:01:09.504Z,41.88
2022-11-12T20:03:37.357Z,41.85
2022-11-12T20:06:05.204Z,41.69
2022-11-12T20:08:33.110Z,41.99
2022-11-12T20:11:00.938Z,41.79
2022-11-12T20:13:28.759Z,41.78
2022-11-12T20:15:56.616Z,41.59
2022-11-12T20:18:24.505Z,41.85
2022-11-12T20:20:52.564Z,41.53
2022-11-12T20:23:20.359Z,41.46
2022-11-12T20:25:48.197Z,41.38
2022-11-12T20:28:15.973Z,41.42
2022-11-12T20:30:43.988Z,41.54
2022-11-12T20:33:11.830Z,41.46
2022-11-12T20:35:39.828Z,41.73
2022-11-12T20:38:07.608Z,41.70
2022-11-12T20:40:35.425Z,41.81
2022-11-12T20:43:03.163Z,41.26
2022-11-12T20:45:30.966Z,41.59
2022-11-12T20:47:58.729Z,41.51
2022-11-12T20:50:26.551Z,41.65
2022-11-12T20:52:54.465Z,41.39
2022-11-12T20:55:22.264Z,41.69
2022-11-12T20:57:50.076Z,41.55
2022-11-12T21:00:23.753Z,41.86
2022-11-12T21:02:52.042Z,41.91
2022-11-12T21:05:19.973Z,41.55
2022-11-12T21:07:47.982Z,41.90
2022-11-12T21:10:15.756Z,41.55
2022-11-12T21:12:43.587Z,41.66
2022-11-12T21:15:11.376Z,41.57
2022-11-12T21:17:39.165Z,41.48
2022-11-12T21:20:07.496Z,41.89
2022-11-12T21:22:35.372Z,41.60
2022-11-12T21:25:03.247Z,41.19
2022-11-12T21:27:31.048Z,41.57
2022-11-12T21:29:58.876Z,41.41
2022-11-12T21:32:26.650Z,41.90
2022-11-12T21:34:55.709Z,41.57
2022-11-12T21:37:23.569Z,41.32
2022-11-12T21:39:51.535Z,41.49
2022-11-12T21:42:19.336Z,41.48
2022-11-12T21:44:47.207Z,41.57
2022-11-12T21:47:15.331Z,41.66
2022-11-12T21:49:43.095Z,41.16
2022-11-12T21:52:12.853Z,41.19
2022-11-12T21:54:40.664Z,41.17
2022-11-12T21:57:08.538Z,41.78
2022-11-12T21:59:36.310Z,41.79
2022-11-12T22:02:04.188Z,41.15
2022-11-12T22:04:32.051Z,41.26
2022-11-12T22:06:59.865Z,41.44
2022-11-12T22:09:27.723Z,41.48
2022-11-12T22:11:55.525Z,41.77
2022-11-12T22:14:23.321Z,41.62
2022-11-12T22:16:51.086Z,41.89
2022-11-12T22:19:21.430Z,41.41
2022-11-12T22:21:49.427Z,41.92
2022-11-12T22:24:18.002Z,41.45
2022-11-12T22:26:45.806Z,41.71
2022-11-12T22:29:13.553Z,41.23
2022-11-12T22:31:41.339Z,41.45
2022-11-12T22:34:09.370Z,41.81
2022-11-12T22:36:37.207Z,41.86
2022-11-12T22:39:05.070Z,41.68
2022-11-12T22:41:32.844Z,41.42
2022-11-12T22:44:00.595Z,41.84
2022-11-12T22:46:28.384Z,41.37
2022-11-12T22:48:56.141Z,41.65
2022-11-12T22:51:23.981Z,41.85
2022-11-12T22:53:52.130Z,41.97
2022-11-12T22:56:19.919Z,41.63
2022-11-12T22:58:47.708Z,41.47
2022-11-12T23:01:15.593Z,41.95
2022-11-12T23:03:43.421Z,42.00
2022-11-12T23:06:11.414Z,41.76
2022-11-12T23:08:39.206Z,41.96
2022-11-12T23:11:07.197Z,42.00
2022-11-12T23:13:34.973Z,41.85
2022-11-12T23:16:02.725Z,41.84
2022-11-12T23:18:30.614Z,41.69
2022-11-12T23:20:58.357Z,41.56
2022-11-12T23:23:26.142Z,41.84
2022-11-12T23:25:53.895Z,41.76
2022-11-12T23:28:21.920Z,41.46
2022-11-12T23:30:49.683Z,41.39
2022-11-12T23:33:17.461Z,41.35
2022-11-12T23:35:45.387Z,41.57
2022-11-12T23:38:13.387Z,41.78
2022-11-12T23:40:41.234Z,41.52
2022-11-12T23:43:09.112Z,41.63
2022-11-12T23:45:36.987Z,41.40
2022-11-12T23:48:04.797Z,41.66
2022-11-12T23:50:32.651Z,41.52
2022-11-12T23:53:00.450Z,41.61
2022-11-12T23:55:29.417Z,41.99
2022-11-12T23:57:57.416Z,41.64
